createdAt,value
2022-10-22T00:01:03.049Z,30.08
2022-10-22T00:05:07.343Z,28.02
2022-10-22T00:07:09.175Z,25.88
2022-10-22T00:09:15.383Z,22.13
2022-10-22T00:11:19.479Z,28.63
2022-10-22T00:13:21.734Z,22.65
2022-10-22T00:15:23.627Z,22.42
2022-10-22T00:17:25.737Z,25.13
2022-10-22T00:19:28.254Z,24.23
2022-10-22T00:21:30.841Z,25.15
2022-10-22T00:23:32.797Z,21.83
2022-10-22T00:27:37.501Z,22.50
2022-10-22T00:29:39.553Z,25.30
2022-10-22T00:31:41.404Z,22.52
2022-10-22T00:33:45.765Z,27.02
2022-10-22T00:35:47.758Z,25.38
2022-10-22T00:39:51.271Z,22.13
2022-10-22T00:41:54.918Z,23.70
2022-10-22T00:44:05.196Z,21.75
2022-10-22T00:46:07.015Z,22.60
2022-10-22T00:48:19.376Z,22.90
2022-10-22T00:50:23.703Z,24.45
2022-10-22T00:52:25.811Z,21.60
2022-10-22T00:54:27.666Z,23.38
2022-10-22T00:56:29.645Z,22.17
2022-10-22T00:58:35.014Z,21.35
2022-10-22T01:00:36.997Z,27.63
2022-10-22T01:04:41.638Z,23.55
2022-10-22T01:06:43.516Z,24.08
2022-10-22T01:09:05.606Z,24.75
2022-10-22T01:11:13.406Z,21.95
2022-10-22T01:13:27.641Z,21.73
2022-10-22T01:15:44.659Z,23.15
2022-10-22T01:17:55.176Z,25.63
2022-10-22T01:20:04.887Z,27.15
2022-10-22T01:22:17.714Z,22.48
2022-10-22T01:24:42.149Z,23.70
2022-10-22T01:27:05.065Z,19.58
2022-10-22T01:29:17.967Z,21.75
2022-10-22T01:31:22.125Z,23.70
2022-10-22T01:33:26.566Z,25.58
2022-10-22T01:35:35.726Z,22.40
2022-10-22T01:38:05.171Z,23.65
2022-10-22T01:40:08.981Z,26.23
2022-10-22T01:42:13.215Z,19.23
2022-10-22T01:44:30.054Z,21.33
2022-10-22T01:46:32.624Z,21.85
2022-10-22T01:48:55.583Z,20.42
2022-10-22T01:50:57.423Z,21.90
2022-10-22T01:53:11.223Z,24.05
2022-10-22T01:55:29.978Z,21.90
2022-10-22T01:57:51.997Z,22.88
2022-10-22T02:00:08.795Z,22.33
2022-10-22T02:02:36.127Z,26.08
2022-10-22T02:04:49.988Z,24.45
2022-10-22T02:06:54.960Z,21.42
2022-10-22T02:08:58.513Z,22.60
2022-10-22T02:11:01.507Z,22.15
2022-10-22T02:13:05.107Z,22.60
2022-10-22T02:15:10.064Z,22.40
2022-10-22T02:17:16.496Z,23.35
2022-10-22T02:19:41.933Z,25.08
2022-10-22T02:21:44.291Z,19.65
2022-10-22T02:23:46.865Z,21.15
2022-10-22T02:25:56.225Z,25.17
2022-10-22T02:28:03.887Z,22.00
2022-10-22T02:30:10.588Z,21.50
2022-10-22T02:32:18.165Z,22.58
2022-10-22T02:34:26.127Z,24.63
2022-10-22T02:36:28.585Z,24.77
2022-10-22T02:38:32.005Z,21.63
2022-10-22T02:40:33.987Z,26.35
2022-10-22T02:44:39.161Z,22.00
2022-10-22T02:46:43.405Z,25.23
2022-10-22T02:48:45.211Z,22.23
2022-10-22T02:50:47.109Z,22.25
2022-10-22T02:52:48.964Z,22.80
2022-10-22T02:54:50.796Z,20.00
2022-10-22T02:56:52.719Z,24.98
2022-10-22T02:58:54.575Z,23.65
2022-10-22T03:02:58.338Z,26.95
2022-10-22T03:05:00.267Z,24.35
2022-10-22T03:07:02.089Z,22.13
2022-10-22T03:09:04.089Z,21.42
2022-10-22T03:13:07.764Z,23.27
2022-10-22T03:15:10.019Z,20.60
2022-10-22T03:17:11.822Z,21.67
2022-10-22T03:19:13.844Z,22.25
2022-10-22T03:23:39.219Z,18.93
2022-10-22T03:25:43.539Z,18.98
2022-10-22T03:27:46.359Z,24.08
2022-10-22T03:29:51.028Z,24.90
2022-10-22T03:31:53.688Z,24.42
2022-10-22T03:33:55.618Z,19.42
2022-10-22T03:35:57.571Z,23.60
2022-10-22T03:38:01.500Z,22.65
2022-10-22T03:40:05.301Z,19.92
2022-10-22T03:42:08.443Z,22.10
2022-10-22T03:44:10.616Z,20.08
2022-10-22T03:46:12.480Z,18.90
2022-10-22T03:48:14.300Z,23.27
2022-10-22T03:50:17.236Z,22.48
2022-10-22T03:52:19.153Z,22.05
2022-10-22T03:54:20.992Z,18.88
2022-10-22T03:56:23.162Z,22.30
2022-10-22T03:58:25.072Z,21.85
2022-10-22T04:00:26.891Z,23.95
2022-10-22T04:02:28.739Z,21.50
2022-10-22T04:04:30.796Z,20.63
2022-10-22T04:08:34.983Z,22.38
2022-10-22T04:10:37.031Z,23.45
2022-10-22T04:14:40.615Z,26.60
2022-10-22T04:16:42.905Z,18.80
2022-10-22T04:18:46.690Z,20.98
2022-10-22T04:20:48.927Z,21.45
2022-10-22T04:22:50.855Z,20.33
2022-10-22T04:24:52.692Z,21.05
2022-10-22T04:26:55.113Z,28.23
2022-10-22T04:28:56.982Z,18.15
2022-10-22T04:30:58.837Z,24.35
2022-10-22T04:33:00.681Z,22.33
2022-10-22T04:35:02.574Z,23.85
2022-10-22T04:37:05.003Z,22.02
2022-10-22T04:39:07.048Z,18.50
2022-10-22T04:43:14.712Z,19.30
2022-10-22T04:45:16.562Z,22.85
2022-10-22T04:47:18.415Z,25.60
2022-10-22T04:49:20.340Z,23.42
2022-10-22T04:51:24.168Z,24.33
2022-10-22T04:53:26.444Z,21.70
2022-10-22T04:57:36.363Z,22.30
2022-10-22T04:59:38.274Z,19.27
2022-10-22T05:01:43.412Z,27.75
2022-10-22T05:03:46.293Z,27.10
2022-10-22T05:05:48.135Z,28.10
2022-10-22T05:07:51.696Z,27.05
2022-10-22T05:09:54.222Z,22.48
2022-10-22T05:11:56.331Z,23.80
2022-10-22T05:14:00.527Z,25.10
2022-10-22T05:16:02.644Z,28.08
2022-10-22T05:18:04.599Z,26.02
2022-10-22T05:20:07.095Z,23.38
2022-10-22T05:22:08.930Z,25.50
2022-10-22T05:24:12.416Z,27.80
2022-10-22T05:26:16.505Z,28.05
2022-10-22T05:28:18.338Z,26.17
2022-10-22T05:30:20.197Z,29.70
2022-10-22T05:32:22.019Z,27.08
2022-10-22T05:34:23.879Z,26.67
2022-10-22T05:36:26.031Z,23.98
2022-10-22T05:38:28.019Z,26.95
2022-10-22T05:42:33.981Z,31.75
2022-10-22T05:44:35.954Z,24.95
2022-10-22T05:46:37.811Z,29.92
2022-10-22T05:48:39.811Z,25.30
2022-10-22T05:50:41.625Z,28.52
2022-10-22T05:52:43.692Z,25.58
2022-10-22T05:54:45.604Z,32.58
2022-10-22T05:56:49.043Z,25.92
2022-10-22T05:58:51.237Z,25.23
2022-10-22T06:00:53.166Z,26.40
2022-10-22T06:02:54.987Z,26.23
2022-10-22T06:04:58.002Z,23.38
2022-10-22T06:06:59.936Z,28.30
2022-10-22T06:09:15.840Z,24.48
2022-10-22T06:11:19.307Z,23.70
2022-10-22T06:13:22.963Z,23.83
2022-10-22T06:15:24.861Z,21.40
2022-10-22T06:17:26.732Z,27.48
2022-10-22T06:19:29.907Z,23.38
2022-10-22T06:21:32.959Z,21.67
2022-10-22T06:23:35.296Z,21.00
2022-10-22T06:25:37.150Z,25.75
2022-10-22T06:27:38.954Z,20.83
2022-10-22T06:29:40.850Z,23.08
2022-10-22T06:31:42.708Z,21.20
2022-10-22T06:33:44.533Z,22.30
2022-10-22T06:35:48.527Z,24.02
2022-10-22T06:37:50.378Z,22.05
2022-10-22T06:39:52.243Z,26.45
2022-10-22T06:41:54.065Z,21.35
2022-10-22T06:43:57.576Z,18.83
2022-10-22T06:46:06.081Z,17.50
2022-10-22T06:48:07.932Z,13.13
2022-10-22T06:50:10.141Z,14.38
2022-10-22T06:52:13.019Z,16.30
2022-10-22T06:54:15.965Z,12.55
2022-10-22T06:56:20.590Z,17.90
2022-10-22T06:58:22.499Z,16.30
2022-10-22T07:00:24.771Z,16.27
2022-10-22T07:02:26.864Z,13.60
2022-10-22T07:06:30.674Z,11.73
2022-10-22T07:12:36.806Z,12.25
2022-10-22T07:14:38.947Z,11.73
2022-10-22T07:18:45.603Z,15.00
2022-10-22T07:20:48.299Z,9.85
2022-10-22T07:22:50.142Z,9.73
2022-10-22T07:24:51.964Z,9.52
2022-10-22T07:26:54.063Z,11.05
2022-10-22T07:30:58.833Z,15.10
2022-10-22T07:33:00.726Z,11.73
2022-10-22T07:35:02.591Z,8.57
2022-10-22T07:37:04.563Z,10.43
2022-10-22T07:39:06.468Z,29.70
2022-10-22T07:41:08.370Z,11.55
2022-10-22T07:45:12.282Z,11.07
2022-10-22T07:47:14.133Z,14.25
2022-10-22T07:49:15.984Z,11.55
2022-10-22T07:51:17.911Z,10.98
2022-10-22T07:53:21.301Z,10.70
2022-10-22T07:55:23.191Z,10.20
2022-10-22T07:57:25.143Z,9.75
2022-10-22T07:59:27.052Z,8.77
2022-10-22T08:01:28.949Z,11.05
2022-10-22T08:03:30.892Z,12.82
2022-10-22T08:05:32.718Z,12.85
2022-10-22T08:07:35.157Z,7.68
2022-10-22T08:09:37.026Z,8.25
2022-10-22T08:11:39.191Z,8.55
2022-10-22T08:13:45.111Z,8.65
2022-10-22T08:15:48.374Z,7.30
2022-10-22T08:17:52.082Z,7.60
2022-10-22T08:19:54.263Z,6.90
2022-10-22T08:21:56.119Z,10.23
2022-10-22T08:23:58.746Z,6.70
2022-10-22T08:26:00.664Z,10.85
2022-10-22T08:28:02.554Z,8.43
2022-10-22T08:30:05.808Z,9.05
2022-10-22T08:32:07.961Z,6.40
2022-10-22T08:36:11.603Z,9.53
2022-10-22T08:38:13.434Z,8.63
2022-10-22T08:40:38.802Z,9.25
2022-10-22T08:42:59.438Z,7.15
2022-10-22T08:45:17.367Z,7.03
2022-10-22T08:48:14.152Z,11.93
2022-10-22T08:50:22.948Z,10.30
2022-10-22T08:52:24.927Z,5.25
2022-10-22T08:54:59.955Z,6.78
2022-10-22T09:32:59.313Z,4.68
2022-10-22T09:35:01.549Z,6.40
2022-10-22T09:37:09.752Z,5.63
2022-10-22T09:39:34.521Z,5.72
2022-10-22T09:41:36.864Z,5.50
2022-10-22T09:43:39.033Z,3.67
2022-10-22T09:48:01.006Z,3.80
2022-10-22T09:50:25.527Z,7.20
2022-10-22T09:52:30.474Z,3.30
2022-10-22T09:54:32.265Z,4.05
2022-10-22T09:56:39.383Z,6.05
2022-10-22T09:58:51.183Z,3.55
2022-10-22T10:00:56.427Z,6.95
2022-10-22T10:03:00.354Z,5.07
2022-10-22T10:05:04.456Z,6.45
2022-10-22T10:07:20.360Z,5.18
2022-10-22T10:09:25.219Z,4.00
2022-10-22T10:11:42.054Z,3.13
2022-10-22T10:13:46.976Z,3.80
2022-10-22T10:16:32.536Z,4.88
2022-10-22T10:18:43.586Z,4.07
2022-10-22T10:21:00.428Z,4.47
2022-10-22T10:23:31.205Z,6.80
2022-10-22T10:25:51.918Z,4.35
2022-10-22T10:28:00.552Z,7.18
2022-10-22T10:30:17.915Z,7.88
2022-10-22T10:32:43.562Z,8.75
2022-10-22T10:35:42.308Z,5.05
2022-10-22T10:37:54.409Z,5.20
2022-10-22T10:40:17.564Z,6.10
2022-10-22T10:42:33.673Z,3.85
2022-10-22T10:45:01.155Z,5.70
2022-10-22T10:47:19.556Z,5.82
2022-10-22T10:49:26.993Z,4.28
2022-10-22T10:52:02.493Z,7.57
2022-10-22T10:54:20.425Z,6.15
2022-10-22T10:56:42.186Z,4.45
2022-10-22T10:58:52.972Z,4.82
2022-10-22T11:01:07.947Z,8.32
2022-10-22T11:03:18.377Z,7.65
2022-10-22T11:05:44.822Z,4.55
2022-10-22T11:07:59.962Z,3.15
2022-10-22T11:10:14.126Z,6.78
2022-10-22T11:12:23.637Z,3.72
2022-10-22T11:14:27.857Z,3.80
2022-10-22T11:16:47.894Z,3.88
2022-10-22T11:19:07.241Z,4.38
2022-10-22T11:21:13.242Z,7.13
2022-10-22T11:23:41.316Z,4.90
2022-10-22T11:25:46.233Z,4.05
2022-10-22T11:28:03.217Z,2.90
2022-10-22T11:30:16.892Z,2.60
2022-10-22T11:32:22.273Z,4.65
2022-10-22T11:34:45.492Z,5.80
2022-10-22T11:36:48.646Z,2.28
2022-10-22T11:38:51.267Z,5.25
2022-10-22T11:41:01.803Z,4.65
2022-10-22T11:43:09.137Z,3.25
2022-10-22T11:45:14.236Z,2.22
2022-10-22T11:47:31.694Z,3.40
2022-10-22T11:49:46.671Z,7.18
2022-10-22T11:51:48.688Z,6.05
2022-10-22T11:53:57.280Z,8.35
2022-10-22T11:56:23.161Z,5.00
2022-10-22T11:58:32.407Z,4.25
2022-10-22T12:00:56.667Z,5.03
2022-10-22T12:03:19.406Z,4.80
2022-10-22T12:05:24.019Z,4.05
2022-10-22T12:07:51.186Z,3.60
2022-10-22T12:12:15.460Z,4.82
2022-10-22T12:14:26.963Z,3.20
2022-10-22T12:16:55.570Z,6.43
2022-10-22T12:19:11.581Z,2.47
2022-10-22T12:21:15.591Z,2.33
2022-10-22T12:23:17.734Z,4.72
2022-10-22T12:27:35.882Z,6.05
2022-10-22T12:29:37.850Z,5.30
2022-10-22T12:31:41.536Z,4.22
2022-10-22T12:33:43.901Z,5.05
2022-10-22T12:35:47.758Z,4.88
2022-10-22T12:38:16.925Z,4.40
2022-10-22T12:40:27.637Z,8.63
2022-10-22T12:42:30.464Z,7.13
2022-10-22T12:44:33.061Z,6.78
2022-10-22T12:46:36.104Z,6.05
2022-10-22T12:48:43.981Z,8.20
2022-10-22T12:50:53.422Z,5.38
2022-10-22T12:52:56.019Z,7.28
2022-10-22T12:54:57.898Z,4.80
2022-10-22T12:57:00.569Z,3.38
2022-10-22T12:59:23.734Z,7.30
2022-10-22T13:01:28.450Z,4.43
2022-10-22T13:03:35.214Z,5.35
2022-10-22T13:05:40.163Z,4.53
2022-10-22T13:07:44.662Z,3.60
2022-10-22T13:09:57.273Z,3.85
2022-10-22T13:12:07.145Z,2.83
2022-10-22T13:14:26.999Z,5.68
2022-10-22T13:16:30.217Z,6.03
2022-10-22T13:18:33.451Z,3.97
2022-10-22T13:20:37.512Z,2.67
2022-10-22T13:22:42.063Z,3.20
2022-10-22T13:24:51.255Z,4.75
2022-10-22T13:26:54.668Z,3.88
2022-10-22T13:28:58.387Z,8.10
2022-10-22T13:31:02.550Z,3.33
2022-10-22T13:33:26.485Z,3.90
2022-10-22T13:35:32.930Z,5.78
2022-10-22T13:37:35.622Z,13.93
2022-10-22T13:39:38.440Z,10.55
2022-10-22T13:43:47.617Z,9.65
2022-10-22T13:46:00.258Z,8.05
2022-10-22T13:48:03.549Z,5.57
2022-10-22T13:50:17.037Z,4.10
2022-10-22T13:52:27.696Z,5.13
2022-10-22T13:54:29.701Z,5.00
2022-10-22T13:56:31.687Z,4.85
2022-10-22T13:58:33.621Z,6.28
2022-10-22T14:00:37.225Z,9.95
2022-10-22T14:02:40.184Z,9.82
2022-10-22T14:04:42.830Z,5.38
2022-10-22T14:06:45.146Z,6.82
2022-10-22T14:08:50.676Z,6.90
2022-10-22T14:10:53.282Z,5.93
2022-10-22T14:12:55.238Z,3.83
2022-10-22T14:17:04.383Z,3.20
2022-10-22T14:19:11.334Z,5.80
2022-10-22T14:21:14.833Z,4.75
2022-10-22T14:23:20.835Z,9.63
2022-10-22T14:25:26.302Z,5.88
2022-10-22T14:27:28.196Z,5.20
2022-10-22T14:29:30.062Z,3.45
2022-10-22T14:31:32.496Z,6.15
2022-10-22T14:33:35.877Z,7.75
2022-10-22T14:35:37.759Z,5.93
2022-10-22T14:37:40.028Z,7.00
2022-10-22T14:39:42.515Z,5.95
2022-10-22T14:41:44.760Z,9.65
2022-10-22T14:43:46.852Z,8.60
2022-10-22T14:47:51.923Z,6.63
2022-10-22T14:49:54.855Z,6.78
2022-10-22T14:51:56.697Z,13.77
2022-10-22T14:53:58.790Z,7.80
2022-10-22T14:58:03.476Z,21.10
2022-10-22T15:00:14.498Z,27.92
2022-10-22T15:02:16.433Z,20.02
2022-10-22T15:04:18.604Z,14.63
2022-10-22T15:06:20.501Z,17.25
2022-10-22T15:08:22.520Z,8.13
2022-10-22T15:10:24.542Z,7.80
2022-10-22T15:14:28.382Z,9.93
2022-10-22T15:16:30.638Z,11.45
2022-10-22T15:18:32.771Z,10.70
2022-10-22T15:22:36.775Z,10.48
2022-10-22T15:24:40.282Z,8.27
2022-10-22T15:26:43.780Z,8.07
2022-10-22T15:28:45.724Z,12.50
2022-10-22T15:30:58.484Z,9.77
2022-10-22T15:33:00.421Z,7.28
2022-10-22T15:35:02.640Z,7.25
2022-10-22T15:37:07.337Z,9.95
2022-10-22T15:39:10.566Z,11.40
2022-10-22T15:41:13.615Z,11.13
2022-10-22T15:43:15.645Z,6.95
2022-10-22T15:45:17.740Z,8.18
2022-10-22T15:49:23.151Z,9.27
2022-10-22T15:51:25.415Z,13.73
2022-10-22T15:53:27.314Z,12.20
2022-10-22T15:55:29.131Z,16.33
2022-10-22T15:57:31.063Z,12.25
2022-10-22T15:59:33.214Z,15.63
2022-10-22T16:03:37.647Z,9.32
2022-10-22T16:05:39.561Z,9.35
2022-10-22T16:07:41.846Z,7.60
2022-10-22T16:09:44.061Z,13.55
2022-10-22T16:11:46.379Z,9.80
2022-10-22T16:13:48.402Z,13.38
2022-10-22T16:15:51.714Z,13.38
2022-10-22T16:17:53.667Z,11.75
2022-10-22T16:19:55.643Z,7.63
2022-10-22T16:21:59.542Z,9.00
2022-10-22T16:24:06.127Z,6.93
2022-10-22T16:26:08.570Z,8.65
2022-10-22T16:28:11.673Z,8.57
2022-10-22T16:30:13.871Z,10.82
2022-10-22T16:32:17.064Z,7.57
2022-10-22T16:34:19.104Z,12.05
2022-10-22T16:36:21.566Z,7.07
2022-10-22T16:38:23.816Z,6.55
2022-10-22T16:40:26.010Z,9.15
2022-10-22T16:44:29.866Z,6.50
2022-10-22T16:48:34.535Z,11.27
2022-10-22T16:52:40.957Z,10.57
2022-10-22T16:54:42.954Z,8.90
2022-10-22T16:56:44.928Z,7.72
2022-10-22T16:58:52.313Z,6.93
2022-10-22T17:00:54.564Z,9.20
2022-10-22T17:02:57.601Z,7.60
2022-10-22T17:04:59.620Z,7.97
2022-10-22T17:07:01.685Z,8.95
2022-10-22T17:11:08.978Z,9.05
2022-10-22T17:13:11.068Z,6.60
2022-10-22T17:15:16.292Z,5.82
2022-10-22T17:17:20.192Z,8.52
2022-10-22T17:19:23.014Z,5.97
2022-10-22T17:21:25.951Z,5.00
2022-10-22T17:23:30.858Z,5.32
2022-10-22T17:25:44.171Z,8.45
2022-10-22T17:27:46.250Z,5.03
2022-10-22T17:31:50.419Z,8.45
2022-10-22T17:33:54.423Z,6.40
2022-10-22T17:35:56.531Z,9.00
2022-10-22T17:40:01.427Z,6.50
2022-10-22T17:42:03.544Z,14.82
2022-10-22T17:46:11.303Z,16.92
2022-10-22T17:48:13.415Z,10.02
2022-10-22T17:52:17.352Z,8.60
2022-10-22T17:56:29.925Z,5.65
2022-10-22T17:58:31.835Z,13.98
2022-10-22T18:00:36.291Z,9.02
2022-10-22T18:02:38.265Z,4.03
2022-10-22T18:04:40.134Z,5.88
2022-10-22T18:06:42.050Z,6.90
2022-10-22T18:08:44.286Z,7.20
2022-10-22T18:10:46.276Z,8.45
2022-10-22T18:12:48.239Z,7.70
2022-10-22T18:14:50.316Z,7.78
2022-10-22T18:18:56.521Z,9.23
2022-10-22T18:20:58.696Z,6.70
2022-10-22T18:25:02.521Z,6.72
2022-10-22T18:27:06.007Z,8.88
2022-10-22T18:29:07.884Z,5.55
2022-10-22T18:31:13.735Z,7.03
2022-10-22T18:33:17.936Z,7.22
2022-10-22T18:35:19.898Z,6.00
2022-10-22T18:37:21.869Z,7.22
2022-10-22T18:39:24.234Z,6.00
2022-10-22T18:41:29.042Z,5.55
2022-10-22T18:43:31.406Z,5.30
2022-10-22T18:45:33.431Z,8.05
2022-10-22T18:47:39.280Z,9.93
2022-10-22T18:49:41.341Z,9.38
2022-10-22T18:53:58.723Z,7.17
2022-10-22T18:56:09.349Z,7.05
2022-10-22T18:58:11.332Z,3.75
2022-10-22T19:00:14.023Z,8.20
2022-10-22T19:02:17.262Z,7.60
2022-10-22T19:04:19.218Z,12.80
2022-10-22T19:06:32.002Z,6.22
2022-10-22T19:08:36.265Z,9.50
2022-10-22T19:10:38.819Z,6.45
2022-10-22T19:12:40.783Z,6.75
2022-10-22T19:14:43.125Z,8.75
2022-10-22T19:16:45.450Z,8.23
2022-10-22T19:18:47.424Z,7.13
2022-10-22T19:20:59.004Z,5.43
2022-10-22T19:23:00.863Z,7.32
2022-10-22T19:25:03.629Z,8.82
2022-10-22T19:27:06.256Z,8.90
2022-10-22T19:29:10.938Z,8.75
2022-10-22T19:31:18.234Z,13.25
2022-10-22T19:33:20.242Z,7.00
2022-10-22T19:35:22.492Z,15.82
2022-10-22T19:37:24.524Z,10.20
2022-10-22T19:41:30.580Z,6.10
2022-10-22T19:43:32.507Z,9.57
2022-10-22T19:45:34.524Z,8.68
2022-10-22T19:47:36.847Z,14.02
2022-10-22T19:49:38.766Z,7.38
2022-10-22T19:51:41.516Z,9.35
2022-10-22T19:53:43.773Z,7.10
2022-10-22T19:55:45.948Z,8.98
2022-10-22T19:59:49.850Z,10.20
2022-10-22T20:01:51.845Z,7.63
2022-10-22T20:05:55.803Z,12.60
2022-10-22T20:09:59.691Z,11.10
2022-10-22T20:14:03.880Z,9.77
2022-10-22T20:18:08.363Z,7.72
2022-10-22T20:20:11.128Z,7.25
2022-10-22T20:22:16.330Z,11.52
2022-10-22T20:24:20.605Z,5.85
2022-10-22T20:26:24.059Z,11.60
2022-10-22T20:28:26.499Z,10.85
2022-10-22T20:30:28.448Z,7.63
2022-10-22T20:32:30.788Z,6.25
2022-10-22T20:34:32.791Z,5.10
2022-10-22T20:36:34.788Z,6.53
2022-10-22T20:40:43.627Z,7.22
2022-10-22T20:42:46.555Z,6.07
2022-10-22T20:44:48.645Z,6.45
2022-10-22T20:50:59.845Z,6.07
2022-10-22T20:53:01.828Z,9.18
2022-10-22T20:55:04.053Z,5.05
2022-10-22T20:57:05.981Z,6.40
2022-10-22T20:59:10.981Z,5.07
2022-10-22T21:01:18.633Z,7.38
2022-10-22T21:03:20.561Z,10.93
2022-10-22T21:05:22.670Z,7.60
2022-10-22T21:09:27.203Z,7.57
2022-10-22T21:13:34.085Z,9.30
2022-10-22T21:15:37.527Z,6.78
2022-10-22T21:17:41.000Z,4.53
2022-10-22T21:19:43.289Z,7.50
2022-10-22T21:21:45.741Z,9.20
2022-10-22T21:23:48.035Z,8.32
2022-10-22T21:25:57.137Z,7.22
2022-10-22T21:27:59.424Z,7.43
2022-10-22T21:30:02.206Z,4.57
2022-10-22T21:32:04.420Z,8.45
2022-10-22T21:36:09.215Z,9.33
2022-10-22T21:38:11.110Z,7.07
2022-10-22T21:40:13.224Z,5.32
2022-10-22T21:44:17.360Z,7.00
2022-10-22T21:48:25.215Z,10.05
2022-10-22T21:50:27.932Z,7.07
2022-10-22T21:52:29.776Z,9.02
2022-10-22T21:54:37.480Z,8.43
2022-10-22T21:56:41.092Z,6.65
2022-10-22T21:58:43.835Z,17.08
2022-10-22T22:00:49.915Z,5.57
2022-10-22T22:02:51.849Z,9.20
2022-10-22T22:04:54.949Z,6.25
2022-10-22T22:06:56.840Z,7.10
2022-10-22T22:08:58.953Z,10.35
2022-10-22T22:13:13.442Z,6.38
2022-10-22T22:17:18.753Z,8.48
2022-10-22T22:19:20.623Z,5.22
2022-10-22T22:21:22.567Z,10.20
2022-10-22T22:23:24.689Z,5.78
2022-10-22T22:27:29.897Z,4.60
2022-10-22T22:29:31.824Z,6.20
2022-10-22T22:31:35.242Z,6.28
2022-10-22T22:33:37.094Z,4.68
2022-10-22T22:37:46.698Z,8.57
2022-10-22T22:39:48.910Z,6.00
2022-10-22T22:41:50.906Z,12.48
2022-10-22T22:43:52.847Z,8.70
2022-10-22T22:46:01.448Z,8.05
2022-10-22T22:48:03.846Z,9.35
2022-10-22T22:50:06.348Z,5.13
2022-10-22T22:52:09.201Z,6.43
2022-10-22T22:54:11.512Z,5.55
2022-10-22T22:56:18.037Z,7.63
2022-10-22T22:58:19.854Z,9.60
2022-10-22T23:00:21.797Z,9.77
2022-10-22T23:02:23.749Z,8.02
2022-10-22T23:04:26.353Z,11.48
2022-10-22T23:06:31.495Z,7.75
2022-10-22T23:08:33.803Z,7.47
2022-10-22T23:10:35.723Z,8.15
2022-10-22T23:12:37.527Z,8.75
2022-10-22T23:14:39.406Z,15.73
2022-10-22T23:16:46.164Z,4.88
2022-10-22T23:18:48.990Z,7.43
2022-10-22T23:20:50.865Z,3.10
2022-10-22T23:22:52.743Z,6.65
2022-10-22T23:24:54.624Z,4.60
2022-10-22T23:26:59.945Z,9.52
2022-10-22T23:29:23.072Z,8.48
2022-10-22T23:31:24.921Z,3.75
2022-10-22T23:33:26.953Z,10.05
2022-10-22T23:37:32.249Z,5.07
2022-10-22T23:39:34.197Z,7.15
2022-10-22T23:41:36.715Z,9.13
2022-10-22T23:43:38.848Z,7.82
2022-10-22T23:47:42.852Z,6.57
2022-10-22T23:49:44.926Z,7.72
2022-10-22T23:51:46.981Z,5.93
2022-10-22T23:55:55.255Z,7.18
2022-10-22T23:57:57.147Z,6.38
2022-10-22T23:59:58.948Z,7.63
